Time;durP1;ratioP1;P1;durP2;ratioP2;P2;SDS_P1;SDS_P2;PMS_P1;PMS_P2;Temp;Humidity;BMP_temperature;BMP_pressure;BME280_temperature;BME280_humidity;BME280_pressure;Samples;Min_cycle;Max_cycle;Signal;HPM_P1;HPM_P2
2022/09/09 00:00:23;;;;;;;8.70;7.13;;;14.80;99.90;;;;;;4991953;28;20547;-66
2022/09/09 00:03:00;;;;;;;7.87;6.40;;;14.90;99.90;;;;;;4991726;28;20428;-65
2022/09/09 00:05:36;;;;;;;10.10;7.13;;;14.90;99.90;;;;;;4991735;28;20470;-66
2022/09/09 00:08:03;;;;;;;8.07;6.00;;;14.90;99.90;;;;;;4991815;28;20404;-66
2022/09/09 00:10:39;;;;;;;8.17;6.60;;;14.90;99.90;;;;;;4991618;28;20432;-66
2022/09/09 00:13:27;;;;;;;7.37;6.47;;;14.80;99.90;;;;;;4991761;28;20748;-66
2022/09/09 00:16:17;;;;;;;8.70;7.00;;;14.70;99.90;;;;;;4991751;28;20420;-66
2022/09/09 00:18:54;;;;;;;7.53;6.40;;;14.70;99.90;;;;;;4991448;28;20546;-66
2022/09/09 00:21:32;;;;;;;7.40;6.40;;;14.80;99.90;;;;;;4991356;28;20464;-66
2022/09/09 00:23:58;;;;;;;7.20;6.50;;;14.80;99.90;;;;;;4991296;28;20409;-66
2022/09/09 00:26:40;;;;;;;9.60;5.30;;;14.70;99.90;;;;;;4991180;28;20408;-66
2022/09/09 00:29:18;;;;;;;7.10;6.40;;;14.60;99.90;;;;;;4991367;28;20400;-66
2022/09/09 00:31:44;;;;;;;7.50;6.17;;;14.70;99.90;;;;;;4991350;28;20448;-66
2022/09/09 00:34:17;;;;;;;7.40;6.70;;;14.70;99.90;;;;;;4991338;28;20915;-66
2022/09/09 00:36:45;;;;;;;7.33;6.20;;;14.70;99.90;;;;;;4991321;28;20165;-66
2022/09/09 00:39:38;;;;;;;7.70;7.00;;;14.70;99.90;;;;;;4991349;28;20777;-66
2022/09/09 00:42:13;;;;;;;7.70;6.90;;;14.70;99.90;;;;;;4991111;28;20940;-66
2022/09/09 00:45:03;;;;;;;7.00;5.87;;;14.70;99.90;;;;;;4991619;28;20477;-68
2022/09/09 00:47:50;;;;;;;8.37;6.17;;;14.60;99.90;;;;;;4991540;28;20404;-67
2022/09/09 00:50:34;;;;;;;7.77;6.50;;;14.50;99.90;;;;;;4991434;28;20399;-65
2022/09/09 00:53:10;;;;;;;7.20;5.67;;;14.60;99.90;;;;;;4994173;28;20450;-66
2022/09/09 00:55:49;;;;;;;9.20;7.60;;;14.50;99.90;;;;;;4994807;28;20403;-66
2022/09/09 00:58:15;;;;;;;7.20;6.43;;;14.50;99.90;;;;;;4994831;28;20400;-66
2022/09/09 01:00:49;;;;;;;9.93;7.33;;;14.60;99.90;;;;;;4994700;28;20812;-66
2022/09/09 01:03:34;;;;;;;8.07;7.27;;;14.60;99.90;;;;;;4994588;28;20787;-66
2022/09/09 01:06:26;;;;;;;7.73;6.93;;;14.60;99.90;;;;;;4994564;28;20405;-66
2022/09/09 01:09:22;;;;;;;7.40;6.60;;;14.60;99.90;;;;;;4994595;28;20416;-66
2022/09/09 01:11:57;;;;;;;9.50;7.30;;;14.50;99.90;;;;;;4994596;28;20436;-66
2022/09/09 01:14:43;;;;;;;7.63;6.83;;;14.40;99.90;;;;;;4994704;28;20791;-65
2022/09/09 01:17:32;;;;;;;9.40;7.83;;;14.50;99.90;;;;;;4994635;28;20427;-66
2022/09/09 01:20:04;;;;;;;8.73;7.43;;;14.50;99.90;;;;;;4994493;28;20479;-66
2022/09/09 01:22:40;;;;;;;9.40;7.90;;;14.50;99.90;;;;;;4994665;28;20419;-66
2022/09/09 01:25:27;;;;;;;10.17;8.30;;;14.50;99.90;;;;;;4994220;28;20442;-66
2022/09/09 01:27:56;;;;;;;8.83;7.93;;;14.40;99.90;;;;;;4994434;28;20401;-67
2022/09/09 01:30:22;;;;;;;8.23;7.30;;;14.40;99.90;;;;;;4994215;28;20400;-67
2022/09/09 01:32:58;;;;;;;9.90;8.77;;;14.40;99.90;;;;;;4994199;28;20435;-66
2022/09/09 01:35:34;;;;;;;12.33;11.13;;;14.40;99.90;;;;;;4994296;28;20487;-67
2022/09/09 01:38:00;;;;;;;12.43;8.00;;;14.40;99.90;;;;;;4994309;28;20499;-66
2022/09/09 01:40:26;;;;;;;11.87;8.90;;;14.30;99.90;;;;;;4994196;28;20539;-66
2022/09/09 01:42:52;;;;;;;15.37;9.07;;;14.30;99.90;;;;;;4994274;28;20185;-66
2022/09/09 01:45:18;;;;;;;11.20;7.60;;;14.30;99.90;;;;;;4994019;28;20296;-66
2022/09/09 01:47:45;;;;;;;10.33;8.37;;;14.30;99.90;;;;;;4994194;28;20512;-67
2022/09/09 01:50:14;;;;;;;10.60;8.43;;;14.20;99.90;;;;;;4994213;28;20181;-67
2022/09/09 01:52:41;;;;;;;12.97;8.67;;;14.20;99.90;;;;;;4981013;23;1550169;-74
2022/09/09 01:55:08;;;;;;;10.27;9.00;;;14.20;99.90;;;;;;5033465;28;20183;-72
2022/09/09 01:57:49;;;;;;;11.23;8.50;;;14.20;99.90;;;;;;5032753;28;20437;-73
2022/09/09 02:00:15;;;;;;;9.77;8.10;;;14.20;99.90;;;;;;5033760;28;20446;-74
2022/09/09 02:02:49;;;;;;;10.10;7.70;;;14.20;99.90;;;;;;5033357;28;20423;-74
2022/09/09 02:05:21;;;;;;;10.80;8.23;;;14.10;99.90;;;;;;5033016;28;20402;-74
2022/09/09 02:07:50;;;;;;;11.07;7.77;;;14.10;99.90;;;;;;5033402;28;20460;-73
2022/09/09 02:10:28;;;;;;;11.13;9.70;;;14.10;99.90;;;;;;5033594;28;20410;-73
2022/09/09 02:13:03;;;;;;;8.73;7.70;;;14.10;99.90;;;;;;5033542;28;20420;-74
2022/09/09 02:15:40;;;;;;;8.13;7.00;;;14.10;99.90;;;;;;5033331;28;20457;-74
2022/09/09 02:18:10;;;;;;;9.17;7.43;;;14.00;99.90;;;;;;5015594;28;20424;-73
2022/09/09 02:20:38;;;;;;;10.63;7.20;;;14.00;99.90;;;;;;5033065;28;20450;-74
2022/09/09 02:23:05;;;;;;;9.87;7.80;;;14.00;99.90;;;;;;5033013;28;20514;-74
2022/09/09 02:25:33;;;;;;;12.30;8.10;;;14.00;99.90;;;;;;5032973;28;20483;-74
2022/09/09 02:27:59;;;;;;;8.30;7.03;;;14.10;99.90;;;;;;5033214;28;20414;-73
2022/09/09 02:30:24;;;;;;;8.70;7.57;;;14.10;99.90;;;;;;5033177;28;20970;-73
2022/09/09 02:32:56;;;;;;;9.67;8.07;;;14.10;99.90;;;;;;5033143;28;20198;-74
2022/09/09 02:35:24;;;;;;;8.90;7.47;;;14.10;99.90;;;;;;5032788;28;20262;-73
2022/09/09 02:37:53;;;;;;;13.07;7.40;;;14.00;99.90;;;;;;5032835;28;20421;-73
2022/09/09 02:40:20;;;;;;;8.17;6.93;;;14.00;99.90;;;;;;5032693;28;20462;-72
2022/09/09 02:42:47;;;;;;;11.13;8.23;;;14.00;99.90;;;;;;5032785;28;20865;-72
2022/09/09 02:45:19;;;;;;;8.20;7.40;;;14.00;99.90;;;;;;5032564;28;20418;-73
2022/09/09 02:48:17;;;;;;;9.20;7.03;;;14.00;99.90;;;;;;5032840;28;20822;-73
2022/09/09 02:51:08;;;;;;;9.43;6.80;;;13.90;99.90;;;;;;5033630;28;20411;-74
2022/09/09 02:53:54;;;;;;;8.70;7.27;;;13.90;99.90;;;;;;5032692;28;20541;-74
2022/09/09 02:56:22;;;;;;;9.60;7.40;;;13.90;99.90;;;;;;5014624;28;20442;-75
2022/09/09 02:58:51;;;;;;;8.63;7.00;;;13.90;99.90;;;;;;5032485;28;20472;-75
2022/09/09 03:01:17;;;;;;;8.53;6.20;;;13.90;99.90;;;;;;5032486;28;20454;-74
2022/09/09 03:03:44;;;;;;;11.00;7.50;;;13.90;99.90;;;;;;5032273;28;20901;-74
2022/09/09 03:06:11;;;;;;;7.77;6.30;;;13.90;99.90;;;;;;5032433;28;20171;-74
2022/09/09 03:08:37;;;;;;;6.67;6.00;;;13.90;99.90;;;;;;5032270;28;20468;-74
2022/09/09 03:11:03;;;;;;;9.47;6.53;;;13.80;99.90;;;;;;5032213;28;20505;-73
2022/09/09 03:13:28;;;;;;;10.73;6.50;;;13.80;99.90;;;;;;5032325;28;20624;-73
2022/09/09 03:15:54;;;;;;;10.37;6.80;;;13.80;99.90;;;;;;5032161;28;20262;-74
2022/09/09 03:18:20;;;;;;;7.80;6.60;;;13.80;99.90;;;;;;5032179;28;20403;-73
2022/09/09 03:20:48;;;;;;;9.10;6.60;;;13.80;99.90;;;;;;5032033;28;20203;-72
2022/09/09 03:23:14;;;;;;;7.50;6.37;;;13.70;99.90;;;;;;5031964;28;20203;-72
2022/09/09 03:25:46;;;;;;;9.03;7.00;;;13.80;99.90;;;;;;5031877;28;20415;-73
2022/09/09 03:28:11;;;;;;;8.67;6.43;;;13.80;99.90;;;;;;5032281;28;20205;-74
2022/09/09 03:30:37;;;;;;;12.50;8.73;;;13.70;99.90;;;;;;5032216;28;20492;-72
2022/09/09 03:33:03;;;;;;;8.70;7.80;;;13.80;99.90;;;;;;5032361;28;20192;-72
2022/09/09 03:35:29;;;;;;;10.83;6.80;;;13.80;99.90;;;;;;5031896;28;20436;-73
2022/09/09 03:37:55;;;;;;;14.00;7.17;;;13.80;99.90;;;;;;5031728;28;20794;-73
2022/09/09 03:40:21;;;;;;;11.00;6.70;;;13.70;99.90;;;;;;5031731;28;20753;-73
2022/09/09 03:42:47;;;;;;;7.83;6.70;;;13.70;99.90;;;;;;5031714;28;20492;-73
2022/09/09 03:45:13;;;;;;;11.17;7.40;;;13.70;99.90;;;;;;5031793;28;20407;-73
2022/09/09 03:47:39;;;;;;;7.10;6.23;;;13.70;99.90;;;;;;5031860;28;20417;-73
2022/09/09 03:50:08;;;;;;;8.33;6.67;;;13.70;99.90;;;;;;5031789;28;20172;-73
2022/09/09 03:52:39;;;;;;;7.67;6.90;;;13.70;99.90;;;;;;5031463;28;20302;-75
2022/09/09 03:55:05;;;;;;;8.97;6.43;;;13.70;99.90;;;;;;5031655;28;20414;-74
2022/09/09 03:57:31;;;;;;;11.30;8.33;;;13.70;99.90;;;;;;5031650;28;20774;-74
2022/09/09 03:59:57;;;;;;;9.30;7.80;;;13.70;99.90;;;;;;5031567;28;20545;-73
2022/09/09 04:02:23;;;;;;;7.37;6.57;;;13.70;99.90;;;;;;5031623;28;20480;-74
2022/09/09 04:04:49;;;;;;;9.10;5.97;;;13.70;99.90;;;;;;5031327;28;20411;-73
2022/09/09 04:07:14;;;;;;;7.70;6.07;;;13.70;99.90;;;;;;5031521;28;20168;-74
2022/09/09 04:09:40;;;;;;;7.80;6.50;;;13.70;99.90;;;;;;5031643;28;20176;-74
2022/09/09 04:12:06;;;;;;;10.63;6.30;;;13.60;99.90;;;;;;5031467;28;20187;-73
2022/09/09 04:14:32;;;;;;;9.33;6.20;;;13.60;99.90;;;;;;5031507;28;20168;-73
2022/09/09 04:16:59;;;;;;;6.17;5.20;;;13.60;99.90;;;;;;5031599;28;20918;-74
2022/09/09 04:19:25;;;;;;;10.07;6.50;;;13.60;99.90;;;;;;5031189;28;20223;-74
2022/09/09 04:21:51;;;;;;;6.40;5.70;;;13.50;99.90;;;;;;5031563;28;20411;-73
2022/09/09 04:24:17;;;;;;;5.83;5.17;;;13.60;99.90;;;;;;5031805;28;20406;-75
2022/09/09 04:26:43;;;;;;;7.17;6.50;;;13.60;99.90;;;;;;5032325;28;20406;-73
2022/09/09 04:29:08;;;;;;;6.13;5.00;;;13.60;99.90;;;;;;5035317;28;20228;-73
2022/09/09 04:31:34;;;;;;;7.57;6.13;;;13.60;99.90;;;;;;5035141;28;20418;-73
2022/09/09 04:34:05;;;;;;;8.73;5.00;;;13.50;99.90;;;;;;5035099;28;20582;-74
2022/09/09 04:36:32;;;;;;;6.97;6.27;;;13.50;99.90;;;;;;5035539;28;20493;-74
2022/09/09 04:38:57;;;;;;;8.30;5.90;;;13.50;99.90;;;;;;5035513;28;20405;-74
2022/09/09 04:41:23;;;;;;;7.03;5.57;;;13.50;99.90;;;;;;5035250;28;20557;-75
2022/09/09 04:43:49;;;;;;;6.87;6.17;;;13.60;99.90;;;;;;5035211;28;20564;-73
2022/09/09 04:46:17;;;;;;;9.63;7.30;;;13.60;99.90;;;;;;5035101;28;20191;-74
2022/09/09 04:48:42;;;;;;;8.33;7.33;;;13.60;99.90;;;;;;5035025;28;20905;-75
2022/09/09 04:51:11;;;;;;;8.53;5.90;;;13.70;99.90;;;;;;5035058;28;20412;-75
2022/09/09 04:53:37;;;;;;;6.17;5.57;;;13.70;99.90;;;;;;5034763;28;20203;-74
2022/09/09 04:56:09;;;;;;;7.00;5.90;;;13.70;99.90;;;;;;5034882;28;20410;-75
2022/09/09 04:58:36;;;;;;;7.90;6.30;;;13.70;99.90;;;;;;5035161;28;20409;-73
2022/09/09 05:01:13;;;;;;;9.50;5.50;;;13.80;99.90;;;;;;5034822;28;20777;-74
2022/09/09 05:03:38;;;;;;;6.17;5.57;;;13.80;99.90;;;;;;5034623;28;20421;-74
2022/09/09 05:06:04;;;;;;;6.50;5.67;;;13.80;99.90;;;;;;5034622;28;20395;-74
2022/09/09 05:08:30;;;;;;;7.97;5.93;;;13.90;99.90;;;;;;5034814;28;20171;-75
2022/09/09 05:10:55;;;;;;;8.50;6.60;;;13.90;99.90;;;;;;5034742;28;20175;-75
2022/09/09 05:13:22;;;;;;;6.60;5.50;;;14.00;99.90;;;;;;5034650;28;20199;-74
2022/09/09 05:15:55;;;;;;;7.17;5.60;;;14.00;99.90;;;;;;5016653;28;20544;-75
2022/09/09 05:18:22;;;;;;;8.47;6.50;;;14.10;99.90;;;;;;5034484;28;20414;-75
2022/09/09 05:20:48;;;;;;;7.50;6.37;;;14.20;99.90;;;;;;5034532;28;20446;-74
2022/09/09 05:23:13;;;;;;;11.50;6.47;;;14.20;99.90;;;;;;5034619;28;20983;-75
2022/09/09 05:25:41;;;;;;;8.30;6.17;;;14.30;99.90;;;;;;5034328;28;20434;-74
2022/09/09 05:28:07;;;;;;;7.90;5.47;;;14.30;99.90;;;;;;5034578;28;20156;-74
2022/09/09 05:30:33;;;;;;;6.80;6.03;;;14.30;99.90;;;;;;5034292;28;20489;-74
2022/09/09 05:32:59;;;;;;;6.30;5.33;;;14.40;99.90;;;;;;5034078;28;20793;-75
2022/09/09 05:35:25;;;;;;;7.00;5.57;;;14.50;99.90;;;;;;5033962;28;20489;-75
2022/09/09 05:37:50;;;;;;;6.57;5.37;;;14.50;99.90;;;;;;5033302;28;20171;-75
2022/09/09 05:40:16;;;;;;;6.93;6.13;;;14.60;99.90;;;;;;5015924;28;20282;-74
2022/09/09 05:42:41;;;;;;;6.77;5.60;;;14.70;99.90;;;;;;5033995;28;20558;-74
2022/09/09 05:45:08;;;;;;;6.10;5.50;;;14.70;99.90;;;;;;5033946;28;20171;-75
2022/09/09 05:47:37;;;;;;;5.03;4.53;;;14.90;99.90;;;;;;5034109;28;20642;-74
2022/09/09 05:50:03;;;;;;;4.73;4.07;;;15.20;99.90;;;;;;5033888;28;20766;-74
2022/09/09 05:52:28;;;;;;;4.63;3.87;;;15.30;99.90;;;;;;5033736;28;21020;-74
2022/09/09 05:54:56;;;;;;;4.57;3.70;;;15.70;99.90;;;;;;5033804;28;20548;-74
2022/09/09 05:57:21;;;;;;;3.83;3.53;;;16.40;99.90;;;;;;5015972;28;20263;-75
2022/09/09 05:59:47;;;;;;;3.33;3.00;;;16.90;99.90;;;;;;5033706;28;20469;-75
2022/09/09 06:02:13;;;;;;;3.40;2.93;;;17.20;99.90;;;;;;5033764;28;20193;-75
2022/09/09 06:04:38;;;;;;;3.67;3.27;;;17.50;99.90;;;;;;5033634;28;20624;-75
2022/09/09 06:07:05;;;;;;;2.53;2.43;;;17.70;99.90;;;;;;5033807;28;20857;-75
2022/09/09 06:09:30;;;;;;;4.97;4.47;;;18.00;99.90;;;;;;5033766;28;20165;-75
2022/09/09 06:11:57;;;;;;;3.13;2.80;;;18.20;99.90;;;;;;5033420;28;20422;-75
2022/09/09 06:14:23;;;;;;;2.70;2.50;;;18.20;99.90;;;;;;5033653;28;20176;-74
2022/09/09 06:16:48;;;;;;;3.97;2.67;;;17.80;99.90;;;;;;5033614;28;20482;-74
2022/09/09 06:19:14;;;;;;;2.60;2.40;;;18.30;99.90;;;;;;5033639;28;20641;-73
2022/09/09 06:21:40;;;;;;;3.63;2.97;;;18.90;99.90;;;;;;5035655;28;20172;-74
2022/09/09 06:24:10;;;;;;;2.30;2.10;;;18.80;99.90;;;;;;5037140;28;20253;-75
2022/09/09 06:26:38;;;;;;;3.13;2.20;;;19.00;99.90;;;;;;5033325;28;20402;-74
2022/09/09 06:29:04;;;;;;;2.53;2.20;;;19.40;99.90;;;;;;5033714;28;20410;-73
2022/09/09 06:31:33;;;;;;;3.40;2.43;;;19.70;99.90;;;;;;5033254;28;20949;-72
2022/09/09 06:33:59;;;;;;;2.57;2.20;;;19.90;99.90;;;;;;5033447;28;20174;-73
2022/09/09 06:36:27;;;;;;;3.33;2.10;;;20.00;99.90;;;;;;5015419;28;20429;-73
2022/09/09 06:38:53;;;;;;;2.10;1.90;;;20.20;99.90;;;;;;5033089;28;20184;-73
2022/09/09 06:41:21;;;;;;;3.90;2.07;;;20.30;99.90;;;;;;5033300;28;20451;-74
2022/09/09 06:43:47;;;;;;;3.63;2.10;;;20.40;99.90;;;;;;5033123;28;21183;-74
2022/09/09 06:46:23;;;;;;;4.70;2.10;;;20.00;99.90;;;;;;5033197;28;20404;-73
2022/09/09 06:48:49;;;;;;;2.80;2.03;;;19.20;99.90;;;;;;5033658;28;20465;-74
2022/09/09 06:51:19;;;;;;;2.63;1.70;;;18.70;99.90;;;;;;5033795;28;20407;-72
2022/09/09 06:53:46;;;;;;;2.53;2.00;;;18.20;99.90;;;;;;5033976;28;20584;-75
2022/09/09 06:56:17;;;;;;;2.27;2.03;;;18.00;99.90;;;;;;5033178;28;20411;-74
2022/09/09 06:58:44;;;;;;;1.90;1.80;;;18.20;99.90;;;;;;5032838;28;20402;-74
2022/09/09 07:01:12;;;;;;;2.00;1.73;;;19.20;99.90;;;;;;5032643;28;20453;-72
2022/09/09 07:03:38;;;;;;;1.97;1.70;;;19.60;99.90;;;;;;5032710;28;20866;-72
2022/09/09 07:06:05;;;;;;;3.17;1.80;;;20.50;99.90;;;;;;5032360;28;20415;-72
2022/09/09 07:08:31;;;;;;;1.60;1.50;;;20.70;99.90;;;;;;5032453;28;20421;-73
2022/09/09 07:11:05;;;;;;;4.07;1.97;;;20.90;99.90;;;;;;5014803;28;20416;-73
2022/09/09 07:13:31;;;;;;;3.07;1.50;;;20.90;99.90;;;;;;5032293;28;20448;-73
2022/09/09 07:16:10;;;;;;;3.10;2.23;;;21.70;99.90;;;;;;5032300;28;20410;-73
2022/09/09 07:18:36;;;;;;;1.70;1.40;;;21.80;99.90;;;;;;5015902;28;20950;-74
2022/09/09 07:21:03;;;;;;;1.40;1.30;;;22.00;99.90;;;;;;5032152;28;20458;-73
2022/09/09 07:23:30;;;;;;;1.87;1.60;;;21.80;99.90;;;;;;5032391;28;20215;-74
2022/09/09 07:25:57;;;;;;;2.30;1.50;;;22.40;99.90;;;;;;5032379;28;20505;-73
2022/09/09 07:28:24;;;;;;;3.93;1.70;;;22.30;99.90;;;;;;5033066;28;20768;-73
2022/09/09 07:31:01;;;;;;;1.63;1.53;;;23.40;99.90;;;;;;5035062;28;20403;-74
2022/09/09 07:33:26;;;;;;;2.83;1.70;;;23.10;99.90;;;;;;5034595;28;20431;-73
2022/09/09 07:35:52;;;;;;;2.77;1.47;;;22.20;99.90;;;;;;5033588;28;20406;-73
2022/09/09 07:38:20;;;;;;;2.00;1.13;;;21.80;99.90;;;;;;5032298;28;20198;-73
2022/09/09 07:40:45;;;;;;;2.17;1.90;;;22.00;99.90;;;;;;5032452;28;20466;-73
2022/09/09 07:43:11;;;;;;;2.53;1.87;;;21.90;99.90;;;;;;5032127;28;20429;-72
2022/09/09 07:45:38;;;;;;;5.33;1.90;;;22.20;99.90;;;;;;5032012;28;20285;-74
2022/09/09 07:48:05;;;;;;;2.13;1.80;;;22.20;99.90;;;;;;5032001;28;20171;-74
2022/09/09 07:50:30;;;;;;;2.73;1.43;;;23.30;99.90;;;;;;5032278;28;20438;-74
2022/09/09 07:52:56;;;;;;;3.00;2.10;;;23.00;99.90;;;;;;5054100;22;20560;-68
2022/09/09 07:55:25;;;;;;;1.37;1.27;;;22.60;99.90;;;;;;5031555;28;20160;-68
2022/09/09 07:57:51;;;;;;;4.07;1.67;;;23.00;99.90;;;;;;5032030;28;20529;-68
2022/09/09 08:00:16;;;;;;;2.03;1.33;;;22.70;99.90;;;;;;5031797;28;20456;-68
2022/09/09 08:02:42;;;;;;;1.33;1.20;;;23.30;99.90;;;;;;5034494;28;20195;-68
2022/09/09 08:05:07;;;;;;;1.20;1.10;;;23.30;99.90;;;;;;5035918;28;20175;-68
2022/09/09 08:07:33;;;;;;;2.40;1.97;;;23.50;99.90;;;;;;5036037;28;20176;-67
2022/09/09 08:09:59;;;;;;;3.80;1.70;;;24.00;99.90;;;;;;5036019;28;20171;-68
2022/09/09 08:12:24;;;;;;;2.70;1.20;;;23.50;99.90;;;;;;5035794;28;20425;-68
2022/09/09 08:14:51;;;;;;;2.10;1.10;;;23.50;99.90;;;;;;5035533;28;20228;-67
2022/09/09 08:17:16;;;;;;;1.50;1.40;;;23.20;99.90;;;;;;5035662;28;20182;-68
2022/09/09 08:19:42;;;;;;;2.70;1.50;;;23.70;99.90;;;;;;5035500;28;20450;-67
2022/09/09 08:22:08;;;;;;;1.40;1.30;;;23.70;99.90;;;;;;5035416;28;20241;-68
2022/09/09 08:24:34;;;;;;;1.93;1.30;;;23.00;99.90;;;;;;5035579;28;20168;-68
2022/09/09 08:26:59;;;;;;;2.63;1.30;;;22.80;99.90;;;;;;5035577;28;20159;-68
2022/09/09 08:29:25;;;;;;;1.43;1.30;;;23.10;99.90;;;;;;5035632;28;20309;-68
2022/09/09 08:31:57;;;;;;;2.77;1.83;;;22.90;99.90;;;;;;5035355;28;20262;-68
2022/09/09 08:34:22;;;;;;;2.60;1.60;;;22.10;99.90;;;;;;5035431;28;20743;-68
2022/09/09 08:36:50;;;;;;;5.97;1.83;;;22.50;99.90;;;;;;5035330;28;20406;-68
2022/09/09 08:39:18;;;;;;;2.90;1.70;;;22.20;99.90;;;;;;5035282;28;20718;-68
2022/09/09 08:42:02;;;;;;;1.33;1.23;;;22.30;99.90;;;;;;5035195;28;20552;-68
2022/09/09 08:44:33;;;;;;;1.57;1.40;;;22.60;99.90;;;;;;5035244;28;20410;-66
2022/09/09 08:47:24;;;;;;;2.43;1.20;;;23.00;99.90;;;;;;5034946;28;20974;-67
2022/09/09 08:50:23;;;;;;;4.00;1.47;;;22.10;99.90;;;;;;5034795;28;20406;-67
2022/09/09 08:52:51;;;;;;;1.40;1.30;;;22.00;99.90;;;;;;5034863;28;20502;-67
2022/09/09 08:55:36;;;;;;;1.80;1.40;;;22.00;99.90;;;;;;5034622;28;20420;-66
2022/09/09 08:58:14;;;;;;;3.60;1.30;;;21.80;99.90;;;;;;5034655;28;20400;-68
2022/09/09 09:00:59;;;;;;;2.40;1.60;;;21.70;99.90;;;;;;5034580;28;20982;-68
2022/09/09 09:03:32;;;;;;;1.83;1.30;;;21.10;99.90;;;;;;5035125;28;20425;-68
2022/09/09 09:06:06;;;;;;;1.40;1.20;;;21.00;99.90;;;;;;5034621;28;20448;-68
2022/09/09 09:08:51;;;;;;;1.90;1.73;;;20.90;99.90;;;;;;5034895;28;20497;-68
2022/09/09 09:11:17;;;;;;;1.73;1.50;;;21.20;99.90;;;;;;5034461;28;20407;-67
2022/09/09 09:14:09;;;;;;;1.90;1.40;;;21.20;99.90;;;;;;5034119;28;20452;-67
2022/09/09 09:17:08;;;;;;;3.40;1.30;;;21.20;99.90;;;;;;5034411;28;20651;-68
2022/09/09 09:19:37;;;;;;;1.90;1.43;;;21.00;99.90;;;;;;5034207;28;20436;-67
2022/09/09 09:22:34;;;;;;;2.10;1.73;;;21.20;99.90;;;;;;5034188;28;20416;-68
2022/09/09 09:25:14;;;;;;;2.20;1.80;;;21.00;99.90;;;;;;5034322;28;20426;-68
2022/09/09 09:27:49;;;;;;;1.57;1.33;;;21.40;99.90;;;;;;5034186;28;20395;-68
2022/09/09 09:30:18;;;;;;;1.20;1.10;;;21.70;99.90;;;;;;5034094;28;20406;-67
2022/09/09 09:33:11;;;;;;;1.90;1.10;;;21.70;99.90;;;;;;5034022;28;20434;-68
2022/09/09 09:35:37;;;;;;;2.10;1.30;;;22.20;99.90;;;;;;5034084;28;20419;-68
2022/09/09 09:38:19;;;;;;;2.33;1.30;;;22.50;99.90;;;;;;5034127;28;20908;-68
2022/09/09 09:41:04;;;;;;;2.20;1.30;;;22.70;99.90;;;;;;5034278;28;20298;-68
2022/09/09 09:43:39;;;;;;;1.30;1.10;;;22.90;99.90;;;;;;5034165;28;20434;-68
2022/09/09 09:46:05;;;;;;;3.40;1.30;;;22.70;99.90;;;;;;5034215;28;20394;-68
2022/09/09 09:48:32;;;;;;;1.37;1.27;;;22.90;99.90;;;;;;5034071;28;20795;-68
2022/09/09 09:51:13;;;;;;;4.03;1.60;;;22.70;99.90;;;;;;5033639;28;20418;-68
2022/09/09 09:53:39;;;;;;;3.00;1.50;;;22.40;99.90;;;;;;5033786;28;20449;-67
2022/09/09 09:56:15;;;;;;;1.80;1.60;;;22.40;99.90;;;;;;5033916;28;20408;-67
2022/09/09 09:58:46;;;;;;;1.83;1.13;;;22.30;99.90;;;;;;5034588;28;20202;-68
2022/09/09 10:01:26;;;;;;;1.87;1.23;;;22.10;99.90;;;;;;5033739;28;20910;-68
2022/09/09 10:04:13;;;;;;;1.37;1.27;;;22.10;99.90;;;;;;5033961;28;20431;-68
2022/09/09 10:06:39;;;;;;;1.73;1.47;;;22.80;99.90;;;;;;5033021;28;20421;-68
2022/09/09 10:09:33;;;;;;;1.97;1.50;;;22.70;99.90;;;;;;5033598;28;20812;-68
2022/09/09 10:12:14;;;;;;;2.23;1.63;;;22.20;99.90;;;;;;5033830;28;20402;-67
2022/09/09 10:14:43;;;;;;;2.70;1.30;;;22.30;99.90;;;;;;5033703;28;20400;-67
2022/09/09 10:17:35;;;;;;;2.40;1.40;;;22.30;99.90;;;;;;5033377;28;20890;-68
2022/09/09 10:20:10;;;;;;;5.20;1.33;;;22.10;99.90;;;;;;5033277;28;20442;-67
2022/09/09 10:22:36;;;;;;;3.90;1.27;;;21.80;99.90;;;;;;5033854;28;20417;-67
2022/09/09 10:25:25;;;;;;;2.07;1.30;;;21.90;99.90;;;;;;5032519;28;20761;-68
2022/09/09 10:28:00;;;;;;;1.60;1.50;;;22.30;99.90;;;;;;5033524;28;20396;-68
2022/09/09 10:30:52;;;;;;;1.43;1.30;;;22.60;99.90;;;;;;5031741;28;20420;-68
2022/09/09 10:33:32;;;;;;;1.67;1.37;;;22.90;99.90;;;;;;5033010;28;20429;-68
2022/09/09 10:36:21;;;;;;;2.70;1.57;;;23.00;99.90;;;;;;5032880;28;20411;-68
2022/09/09 10:38:53;;;;;;;2.70;1.30;;;23.10;99.90;;;;;;5033087;28;20402;-68
2022/09/09 10:41:43;;;;;;;4.87;2.27;;;22.80;99.90;;;;;;5032914;28;20457;-67
2022/09/09 10:44:19;;;;;;;3.00;1.67;;;22.50;99.90;;;;;;5032998;28;20432;-67
2022/09/09 10:47:09;;;;;;;3.63;1.20;;;22.30;99.90;;;;;;5032590;28;20888;-67
2022/09/09 10:49:56;;;;;;;1.40;1.17;;;22.40;99.90;;;;;;5032719;28;20846;-68
2022/09/09 10:52:45;;;;;;;2.37;1.40;;;23.00;99.90;;;;;;5032394;28;20395;-67
2022/09/09 10:55:18;;;;;;;3.50;1.57;;;22.90;99.90;;;;;;5032315;28;20749;-68
2022/09/09 10:57:52;;;;;;;2.70;1.33;;;22.80;99.90;;;;;;5032456;28;20409;-67
2022/09/09 11:00:23;;;;;;;1.83;1.10;;;22.70;99.90;;;;;;5032208;28;20475;-68
2022/09/09 11:02:55;;;;;;;6.50;1.30;;;23.10;99.90;;;;;;5032493;28;20430;-68
2022/09/09 11:05:30;;;;;;;2.00;1.20;;;23.30;99.90;;;;;;5032445;28;20410;-68
2022/09/09 11:08:01;;;;;;;2.20;1.07;;;23.30;99.90;;;;;;5032274;28;20406;-68
2022/09/09 11:10:40;;;;;;;1.30;1.20;;;23.00;99.90;;;;;;5032504;28;20500;-67
2022/09/09 11:13:22;;;;;;;1.77;1.20;;;23.00;99.90;;;;;;5032209;28;20422;-68
2022/09/09 11:15:59;;;;;;;1.20;1.03;;;22.90;99.90;;;;;;5032135;28;20797;-67
2022/09/09 11:18:28;;;;;;;2.70;2.03;;;23.00;99.90;;;;;;5032167;28;20977;-68
2022/09/09 11:21:01;;;;;;;2.27;1.47;;;23.20;99.90;;;;;;5032214;28;20458;-67
2022/09/09 11:23:39;;;;;;;1.33;1.07;;;23.10;99.90;;;;;;5031979;28;20950;-68
2022/09/09 11:26:10;;;;;;;1.30;1.20;;;23.10;99.90;;;;;;5031812;28;20391;-68
2022/09/09 11:28:51;;;;;;;1.37;1.27;;;23.30;99.90;;;;;;5031825;28;20411;-67
2022/09/09 11:31:39;;;;;;;4.90;1.50;;;23.30;99.90;;;;;;5032164;28;20490;-67
2022/09/09 11:34:27;;;;;;;3.17;1.30;;;22.80;99.90;;;;;;5031798;28;20421;-67
2022/09/09 11:37:34;;;;;;;4.70;1.40;;;22.20;99.90;;;;;;5031690;28;20405;-67
2022/09/09 11:40:23;;;;;;;2.23;1.37;;;22.40;99.90;;;;;;5031569;28;20437;-67
2022/09/09 11:43:00;;;;;;;5.17;1.63;;;22.70;99.90;;;;;;5031584;28;20417;-68
2022/09/09 11:45:29;;;;;;;1.37;1.27;;;22.70;99.90;;;;;;5031318;28;20448;-67
2022/09/09 11:47:59;;;;;;;2.43;1.73;;;22.80;99.90;;;;;;5031838;28;20425;-68
2022/09/09 11:50:24;;;;;;;2.97;1.10;;;22.70;99.90;;;;;;5031893;28;20408;-68
2022/09/09 11:52:51;;;;;;;2.60;1.30;;;22.30;99.90;;;;;;5031708;28;20439;-69
2022/09/09 11:55:34;;;;;;;2.27;1.57;;;22.50;99.90;;;;;;5031290;28;20558;-67
2022/09/09 11:58:01;;;;;;;1.40;1.10;;;22.30;99.90;;;;;;5031281;28;20414;-68
2022/09/09 12:00:36;;;;;;;2.20;1.40;;;22.20;99.90;;;;;;5031209;28;20445;-67
2022/09/09 12:03:03;;;;;;;1.40;1.00;;;22.40;99.90;;;;;;5031381;28;20454;-69
2022/09/09 12:05:39;;;;;;;1.00;0.90;;;22.50;99.90;;;;;;5031123;28;20437;-68
2022/09/09 12:08:06;;;;;;;1.33;1.20;;;22.70;99.90;;;;;;5031283;28;20973;-68
2022/09/09 12:10:38;;;;;;;1.13;1.03;;;22.90;99.90;;;;;;5031402;28;20912;-68
2022/09/09 12:13:17;;;;;;;2.57;1.30;;;22.80;99.90;;;;;;5031343;28;20425;-68
2022/09/09 12:15:49;;;;;;;2.10;1.30;;;23.00;99.90;;;;;;5031337;28;20437;-67
2022/09/09 12:18:25;;;;;;;1.70;1.20;;;23.20;99.90;;;;;;5033121;28;20410;-68
2022/09/09 12:21:27;;;;;;;1.43;1.10;;;23.40;99.90;;;;;;5033214;28;20441;-68
2022/09/09 12:23:54;;;;;;;2.80;1.53;;;23.70;99.90;;;;;;5031850;28;20456;-67
2022/09/09 12:26:35;;;;;;;2.53;1.30;;;23.80;99.90;;;;;;5031225;28;20408;-67
2022/09/09 12:29:35;;;;;;;1.33;0.90;;;23.60;99.90;;;;;;5031232;28;20433;-68
2022/09/09 12:32:25;;;;;;;2.40;1.10;;;23.30;99.90;;;;;;5031287;28;20822;-68
2022/09/09 12:34:59;;;;;;;2.60;1.00;;;23.50;99.90;;;;;;5022026;28;20501;-66
2022/09/09 12:37:40;;;;;;;1.37;1.13;;;23.30;99.90;;;;;;5031080;28;20430;-67
2022/09/09 12:40:20;;;;;;;1.20;1.10;;;22.90;99.90;;;;;;5030764;28;20502;-67
2022/09/09 12:42:46;;;;;;;1.47;1.30;;;22.80;99.90;;;;;;5031287;28;20594;-67
2022/09/09 12:45:20;;;;;;;2.27;1.33;;;22.70;99.90;;;;;;5030934;28;20433;-68
2022/09/09 12:47:48;;;;;;;5.57;1.17;;;22.60;99.90;;;;;;5032219;28;20252;-67
2022/09/09 12:50:21;;;;;;;1.00;0.90;;;22.70;99.90;;;;;;5034620;28;20911;-68
2022/09/09 12:52:49;;;;;;;2.03;1.10;;;22.80;99.90;;;;;;5034209;28;20467;-66
2022/09/09 12:55:21;;;;;;;3.50;1.20;;;23.00;99.90;;;;;;5034410;28;20497;-68
2022/09/09 12:57:51;;;;;;;1.20;1.00;;;23.00;99.90;;;;;;5034461;28;20419;-67
2022/09/09 13:00:25;;;;;;;3.33;1.40;;;23.10;99.90;;;;;;5034443;28;20510;-67
2022/09/09 13:02:56;;;;;;;1.27;1.10;;;23.30;99.90;;;;;;5034540;28;20426;-67
2022/09/09 13:05:24;;;;;;;2.10;1.20;;;23.20;99.90;;;;;;5034263;28;20412;-66
2022/09/09 13:07:50;;;;;;;3.33;1.30;;;22.90;99.90;;;;;;5034372;28;20414;-67
2022/09/09 13:10:26;;;;;;;2.27;1.00;;;22.90;99.90;;;;;;5034409;28;20410;-67